Pouso Alegre, Brazil
Current Conditions -  °F | °C
As of 1:00 PM on Saturday 20 Dec 2014 (Local Time) from SBGW Reporting Station
Broken Clouds Broken Clouds  
Wind Chill: 81°   Ceiling: 10000
Heat Index: 83°   Visibility: 6mi
Dew Point: 68°   Wind: 3mph
Humidity: 65%   Direction: 150°SSE
Pressure: 29.91"   Gusts: NA
Location:  22.22°S, 45.93°W
Report Text: SBGW 201500Z 15003KT 9999 FEW017 BKN100 27/20 Q1013
Loading
Personal Weather Stations






























Interactive Weather Map New forecast layout! Learn more

10-Day Weather Forecast

Advertisements
Track Severe Weather on mobile